sensor_id;sensor_type;location;lat;lon;timestamp;P1;durP1;ratioP1;P2;durP2;ratioP2
58238;SDS011;44037;55.638;37.356;2024-02-16T00:00:05;23.13;;;12.80;;
58238;SDS011;44037;55.638;37.356;2024-02-16T00:02:33;27.27;;;13.38;;
58238;SDS011;44037;55.638;37.356;2024-02-16T00:05:00;26.13;;;13.95;;
58238;SDS011;44037;55.638;37.356;2024-02-16T00:07:29;23.17;;;13.27;;
58238;SDS011;44037;55.638;37.356;2024-02-16T00:09:56;25.52;;;13.68;;
58238;SDS011;44037;55.638;37.356;2024-02-16T00:12:25;25.60;;;14.85;;
58238;SDS011;44037;55.638;37.356;2024-02-16T00:14:52;25.75;;;13.25;;
58238;SDS011;44037;55.638;37.356;2024-02-16T00:17:20;22.85;;;13.05;;
58238;SDS011;44037;55.638;37.356;2024-02-16T00:19:47;22.33;;;12.15;;
58238;SDS011;44037;55.638;37.356;2024-02-16T00:22:15;22.25;;;12.85;;
58238;SDS011;44037;55.638;37.356;2024-02-16T00:24:42;24.75;;;13.68;;
58238;SDS011;44037;55.638;37.356;2024-02-16T00:27:10;27.33;;;15.32;;
58238;SDS011;44037;55.638;37.356;2024-02-16T00:29:38;27.20;;;14.13;;
58238;SDS011;44037;55.638;37.356;2024-02-16T00:32:06;26.20;;;13.98;;
58238;SDS011;44037;55.638;37.356;2024-02-16T00:34:34;27.25;;;15.57;;
58238;SDS011;44037;55.638;37.356;2024-02-16T00:37:02;22.98;;;13.30;;
58238;SDS011;44037;55.638;37.356;2024-02-16T00:39:33;26.42;;;13.50;;
58238;SDS011;44037;55.638;37.356;2024-02-16T00:42:00;20.70;;;12.35;;
58238;SDS011;44037;55.638;37.356;2024-02-16T00:44:28;20.20;;;12.20;;
58238;SDS011;44037;55.638;37.356;2024-02-16T00:46:56;23.55;;;12.55;;
58238;SDS011;44037;55.638;37.356;2024-02-16T00:49:24;22.58;;;12.35;;
58238;SDS011;44037;55.638;37.356;2024-02-16T00:51:51;23.58;;;13.68;;
58238;SDS011;44037;55.638;37.356;2024-02-16T00:54:18;24.50;;;13.45;;
58238;SDS011;44037;55.638;37.356;2024-02-16T00:56:45;23.75;;;13.38;;
58238;SDS011;44037;55.638;37.356;2024-02-16T00:59:14;22.58;;;13.25;;
58238;SDS011;44037;55.638;37.356;2024-02-16T01:01:41;23.13;;;12.75;;
58238;SDS011;44037;55.638;37.356;2024-02-16T01:04:10;19.77;;;12.70;;
58238;SDS011;44037;55.638;37.356;2024-02-16T01:06:38;23.60;;;13.52;;
58238;SDS011;44037;55.638;37.356;2024-02-16T01:09:05;23.92;;;13.35;;
58238;SDS011;44037;55.638;37.356;2024-02-16T01:11:32;23.38;;;13.00;;
58238;SDS011;44037;55.638;37.356;2024-02-16T01:14:00;22.08;;;13.13;;
58238;SDS011;44037;55.638;37.356;2024-02-16T01:16:27;22.27;;;13.35;;
58238;SDS011;44037;55.638;37.356;2024-02-16T01:18:54;24.70;;;14.63;;
58238;SDS011;44037;55.638;37.356;2024-02-16T01:21:23;23.60;;;14.02;;
58238;SDS011;44037;55.638;37.356;2024-02-16T01:23:51;25.05;;;14.65;;
58238;SDS011;44037;55.638;37.356;2024-02-16T01:26:18;27.40;;;16.17;;
58238;SDS011;44037;55.638;37.356;2024-02-16T01:28:46;25.55;;;14.93;;
58238;SDS011;44037;55.638;37.356;2024-02-16T01:31:14;28.27;;;14.70;;
58238;SDS011;44037;55.638;37.356;2024-02-16T01:33:42;19.67;;;12.32;;
58238;SDS011;44037;55.638;37.356;2024-02-16T01:36:09;19.48;;;12.85;;
58238;SDS011;44037;55.638;37.356;2024-02-16T01:38:38;28.10;;;16.23;;
58238;SDS011;44037;55.638;37.356;2024-02-16T01:41:05;26.48;;;14.43;;
58238;SDS011;44037;55.638;37.356;2024-02-16T01:43:34;26.52;;;15.25;;
58238;SDS011;44037;55.638;37.356;2024-02-16T01:46:01;23.30;;;14.88;;
58238;SDS011;44037;55.638;37.356;2024-02-16T01:48:29;26.17;;;14.00;;
58238;SDS011;44037;55.638;37.356;2024-02-16T01:50:56;24.90;;;15.40;;
58238;SDS011;44037;55.638;37.356;2024-02-16T01:53:26;24.23;;;13.68;;
58238;SDS011;44037;55.638;37.356;2024-02-16T01:55:56;25.98;;;14.18;;
58238;SDS011;44037;55.638;37.356;2024-02-16T01:58:23;25.63;;;15.05;;
58238;SDS011;44037;55.638;37.356;2024-02-16T02:00:52;27.90;;;16.02;;
58238;SDS011;44037;55.638;37.356;2024-02-16T02:03:20;25.83;;;14.50;;
58238;SDS011;44037;55.638;37.356;2024-02-16T02:05:48;25.00;;;13.63;;
58238;SDS011;44037;55.638;37.356;2024-02-16T02:08:16;30.20;;;15.07;;
58238;SDS011;44037;55.638;37.356;2024-02-16T02:10:43;28.30;;;16.40;;
58238;SDS011;44037;55.638;37.356;2024-02-16T02:13:12;26.83;;;14.82;;
58238;SDS011;44037;55.638;37.356;2024-02-16T02:15:40;29.27;;;15.90;;
58238;SDS011;44037;55.638;37.356;2024-02-16T02:18:07;25.48;;;14.73;;
58238;SDS011;44037;55.638;37.356;2024-02-16T02:20:35;29.77;;;15.68;;
58238;SDS011;44037;55.638;37.356;2024-02-16T02:23:03;27.70;;;15.95;;
58238;SDS011;44037;55.638;37.356;2024-02-16T02:25:30;26.50;;;15.80;;
58238;SDS011;44037;55.638;37.356;2024-02-16T02:27:58;26.00;;;14.95;;
58238;SDS011;44037;55.638;37.356;2024-02-16T02:30:25;23.67;;;14.25;;
58238;SDS011;44037;55.638;37.356;2024-02-16T02:32:53;23.05;;;13.35;;
58238;SDS011;44037;55.638;37.356;2024-02-16T02:35:20;27.85;;;15.25;;
58238;SDS011;44037;55.638;37.356;2024-02-16T02:37:48;23.55;;;13.55;;
58238;SDS011;44037;55.638;37.356;2024-02-16T02:40:16;25.58;;;13.18;;
58238;SDS011;44037;55.638;37.356;2024-02-16T02:42:44;26.08;;;15.07;;
58238;SDS011;44037;55.638;37.356;2024-02-16T02:45:11;28.13;;;16.50;;
58238;SDS011;44037;55.638;37.356;2024-02-16T02:47:38;28.30;;;14.82;;
58238;SDS011;44037;55.638;37.356;2024-02-16T02:50:06;24.88;;;15.32;;
58238;SDS011;44037;55.638;37.356;2024-02-16T02:52:34;29.80;;;16.30;;
58238;SDS011;44037;55.638;37.356;2024-02-16T02:55:01;32.22;;;16.98;;
58238;SDS011;44037;55.638;37.356;2024-02-16T02:57:30;24.45;;;14.35;;
58238;SDS011;44037;55.638;37.356;2024-02-16T03:00:02;28.35;;;17.23;;
58238;SDS011;44037;55.638;37.356;2024-02-16T03:02:33;28.13;;;15.98;;
58238;SDS011;44037;55.638;37.356;2024-02-16T03:05:00;33.60;;;18.77;;
58238;SDS011;44037;55.638;37.356;2024-02-16T03:07:28;30.10;;;16.35;;
58238;SDS011;44037;55.638;37.356;2024-02-16T03:09:55;24.63;;;14.77;;
58238;SDS011;44037;55.638;37.356;2024-02-16T03:12:22;28.60;;;15.43;;
58238;SDS011;44037;55.638;37.356;2024-02-16T03:14:51;27.88;;;15.65;;
58238;SDS011;44037;55.638;37.356;2024-02-16T03:17:19;33.15;;;15.75;;
58238;SDS011;44037;55.638;37.356;2024-02-16T03:19:46;30.77;;;16.95;;
58238;SDS011;44037;55.638;37.356;2024-02-16T03:22:13;31.20;;;16.92;;
58238;SDS011;44037;55.638;37.356;2024-02-16T03:24:40;27.02;;;15.75;;
58238;SDS011;44037;55.638;37.356;2024-02-16T03:27:07;30.80;;;15.00;;
58238;SDS011;44037;55.638;37.356;2024-02-16T03:29:36;32.45;;;17.75;;
58238;SDS011;44037;55.638;37.356;2024-02-16T03:32:04;26.90;;;15.63;;
58238;SDS011;44037;55.638;37.356;2024-02-16T03:34:32;30.80;;;14.73;;
58238;SDS011;44037;55.638;37.356;2024-02-16T03:36:59;23.48;;;14.32;;
58238;SDS011;44037;55.638;37.356;2024-02-16T03:39:26;35.53;;;18.33;;
58238;SDS011;44037;55.638;37.356;2024-02-16T03:41:53;27.50;;;16.52;;
58238;SDS011;44037;55.638;37.356;2024-02-16T03:44:20;33.30;;;16.90;;
58238;SDS011;44037;55.638;37.356;2024-02-16T03:46:48;28.60;;;15.57;;
58238;SDS011;44037;55.638;37.356;2024-02-16T03:49:16;31.50;;;17.73;;
58238;SDS011;44037;55.638;37.356;2024-02-16T03:51:44;29.00;;;17.60;;
58238;SDS011;44037;55.638;37.356;2024-02-16T03:54:12;30.55;;;18.70;;
58238;SDS011;44037;55.638;37.356;2024-02-16T03:56:39;33.15;;;17.48;;
58238;SDS011;44037;55.638;37.356;2024-02-16T03:59:07;25.40;;;14.68;;
58238;SDS011;44037;55.638;37.356;2024-02-16T04:01:35;31.92;;;17.95;;
58238;SDS011;44037;55.638;37.356;2024-02-16T04:04:03;32.70;;;16.63;;
58238;SDS011;44037;55.638;37.356;2024-02-16T04:06:32;37.38;;;19.35;;
58238;SDS011;44037;55.638;37.356;2024-02-16T04:08:59;33.75;;;16.05;;
58238;SDS011;44037;55.638;37.356;2024-02-16T04:11:26;28.95;;;15.45;;
58238;SDS011;44037;55.638;37.356;2024-02-16T04:13:55;26.58;;;15.63;;
58238;SDS011;44037;55.638;37.356;2024-02-16T04:16:23;33.78;;;16.85;;
58238;SDS011;44037;55.638;37.356;2024-02-16T04:18:50;29.02;;;15.25;;
58238;SDS011;44037;55.638;37.356;2024-02-16T04:21:17;29.33;;;15.35;;
58238;SDS011;44037;55.638;37.356;2024-02-16T04:23:47;26.33;;;16.73;;
58238;SDS011;44037;55.638;37.356;2024-02-16T04:26:15;27.58;;;15.77;;
58238;SDS011;44037;55.638;37.356;2024-02-16T04:28:42;28.77;;;17.17;;
58238;SDS011;44037;55.638;37.356;2024-02-16T04:31:09;30.40;;;17.75;;
58238;SDS011;44037;55.638;37.356;2024-02-16T04:33:36;29.67;;;15.85;;
58238;SDS011;44037;55.638;37.356;2024-02-16T04:36:05;31.42;;;17.48;;
58238;SDS011;44037;55.638;37.356;2024-02-16T04:38:33;26.75;;;17.33;;
58238;SDS011;44037;55.638;37.356;2024-02-16T04:41:04;24.85;;;15.57;;
58238;SDS011;44037;55.638;37.356;2024-02-16T04:43:31;32.58;;;18.48;;
58238;SDS011;44037;55.638;37.356;2024-02-16T04:45:59;28.85;;;16.20;;
58238;SDS011;44037;55.638;37.356;2024-02-16T04:48:27;26.13;;;15.40;;
58238;SDS011;44037;55.638;37.356;2024-02-16T04:50:54;26.58;;;13.73;;
58238;SDS011;44037;55.638;37.356;2024-02-16T04:53:21;26.13;;;16.35;;
58238;SDS011;44037;55.638;37.356;2024-02-16T04:55:48;32.78;;;17.98;;
58238;SDS011;44037;55.638;37.356;2024-02-16T04:58:17;28.55;;;16.63;;
58238;SDS011;44037;55.638;37.356;2024-02-16T05:00:44;30.92;;;16.40;;
58238;SDS011;44037;55.638;37.356;2024-02-16T05:03:13;33.10;;;17.35;;
58238;SDS011;44037;55.638;37.356;2024-02-16T05:05:40;32.72;;;18.15;;
58238;SDS011;44037;55.638;37.356;2024-02-16T05:08:08;27.70;;;17.05;;
58238;SDS011;44037;55.638;37.356;2024-02-16T05:10:35;29.73;;;16.70;;
58238;SDS011;44037;55.638;37.356;2024-02-16T05:13:03;35.33;;;17.60;;
58238;SDS011;44037;55.638;37.356;2024-02-16T05:15:32;37.13;;;17.42;;
58238;SDS011;44037;55.638;37.356;2024-02-16T05:17:59;27.45;;;16.77;;
58238;SDS011;44037;55.638;37.356;2024-02-16T05:20:27;27.20;;;16.02;;
58238;SDS011;44037;55.638;37.356;2024-02-16T05:22:54;30.05;;;17.92;;
58238;SDS011;44037;55.638;37.356;2024-02-16T05:25:22;36.13;;;18.70;;
58238;SDS011;44037;55.638;37.356;2024-02-16T05:27:49;30.85;;;15.82;;
58238;SDS011;44037;55.638;37.356;2024-02-16T05:30:16;32.53;;;17.85;;
58238;SDS011;44037;55.638;37.356;2024-02-16T05:32:45;24.35;;;15.80;;
58238;SDS011;44037;55.638;37.356;2024-02-16T05:35:14;27.25;;;15.30;;
58238;SDS011;44037;55.638;37.356;2024-02-16T05:37:42;29.60;;;16.13;;
58238;SDS011;44037;55.638;37.356;2024-02-16T05:40:11;27.70;;;16.13;;
58238;SDS011;44037;55.638;37.356;2024-02-16T05:42:47;28.45;;;17.33;;
58238;SDS011;44037;55.638;37.356;2024-02-16T05:45:15;29.90;;;17.98;;
58238;SDS011;44037;55.638;37.356;2024-02-16T05:47:42;30.67;;;16.27;;
58238;SDS011;44037;55.638;37.356;2024-02-16T05:50:12;27.20;;;16.45;;
58238;SDS011;44037;55.638;37.356;2024-02-16T05:52:39;26.77;;;15.90;;
58238;SDS011;44037;55.638;37.356;2024-02-16T05:55:07;30.35;;;17.83;;
58238;SDS011;44037;55.638;37.356;2024-02-16T05:57:35;26.92;;;16.02;;
58238;SDS011;44037;55.638;37.356;2024-02-16T06:00:06;24.98;;;15.52;;
58238;SDS011;44037;55.638;37.356;2024-02-16T06:02:34;27.40;;;16.92;;
58238;SDS011;44037;55.638;37.356;2024-02-16T06:05:02;25.52;;;16.13;;
58238;SDS011;44037;55.638;37.356;2024-02-16T06:07:31;26.92;;;16.60;;
58238;SDS011;44037;55.638;37.356;2024-02-16T06:09:59;26.35;;;16.15;;
58238;SDS011;44037;55.638;37.356;2024-02-16T06:12:29;28.48;;;15.95;;
58238;SDS011;44037;55.638;37.356;2024-02-16T06:14:57;28.83;;;15.73;;
58238;SDS011;44037;55.638;37.356;2024-02-16T06:17:24;26.77;;;16.35;;
58238;SDS011;44037;55.638;37.356;2024-02-16T06:19:51;28.10;;;16.15;;
58238;SDS011;44037;55.638;37.356;2024-02-16T06:22:19;28.08;;;16.30;;
58238;SDS011;44037;55.638;37.356;2024-02-16T06:24:47;31.13;;;16.63;;
58238;SDS011;44037;55.638;37.356;2024-02-16T06:27:15;30.38;;;16.55;;
58238;SDS011;44037;55.638;37.356;2024-02-16T06:29:42;30.58;;;17.17;;
58238;SDS011;44037;55.638;37.356;2024-02-16T06:32:10;25.50;;;15.20;;
58238;SDS011;44037;55.638;37.356;2024-02-16T06:34:38;31.88;;;16.85;;
58238;SDS011;44037;55.638;37.356;2024-02-16T06:37:05;27.50;;;16.35;;
58238;SDS011;44037;55.638;37.356;2024-02-16T06:39:32;26.08;;;16.85;;
58238;SDS011;44037;55.638;37.356;2024-02-16T06:42:02;24.85;;;15.85;;
58238;SDS011;44037;55.638;37.356;2024-02-16T06:44:29;32.08;;;17.38;;
58238;SDS011;44037;55.638;37.356;2024-02-16T06:46:56;27.23;;;16.27;;
58238;SDS011;44037;55.638;37.356;2024-02-16T06:49:24;26.85;;;16.85;;
58238;SDS011;44037;55.638;37.356;2024-02-16T06:51:51;30.80;;;17.83;;
58238;SDS011;44037;55.638;37.356;2024-02-16T06:54:19;33.35;;;17.70;;
58238;SDS011;44037;55.638;37.356;2024-02-16T06:56:46;32.05;;;17.88;;
58238;SDS011;44037;55.638;37.356;2024-02-16T06:59:17;26.25;;;17.02;;
58238;SDS011;44037;55.638;37.356;2024-02-16T07:01:45;25.23;;;16.15;;
58238;SDS011;44037;55.638;37.356;2024-02-16T07:04:12;31.88;;;17.42;;
58238;SDS011;44037;55.638;37.356;2024-02-16T07:06:40;24.42;;;16.23;;
58238;SDS011;44037;55.638;37.356;2024-02-16T07:09:07;29.70;;;16.55;;
58238;SDS011;44037;55.638;37.356;2024-02-16T07:11:34;32.88;;;18.05;;
58238;SDS011;44037;55.638;37.356;2024-02-16T07:14:03;27.65;;;16.33;;
58238;SDS011;44037;55.638;37.356;2024-02-16T07:16:33;33.78;;;18.02;;
58238;SDS011;44037;55.638;37.356;2024-02-16T07:19:01;27.75;;;16.52;;
58238;SDS011;44037;55.638;37.356;2024-02-16T07:21:28;28.08;;;16.42;;
58238;SDS011;44037;55.638;37.356;2024-02-16T07:23:56;29.52;;;17.65;;
58238;SDS011;44037;55.638;37.356;2024-02-16T07:26:23;26.13;;;16.48;;
58238;SDS011;44037;55.638;37.356;2024-02-16T07:28:51;27.42;;;16.10;;
58238;SDS011;44037;55.638;37.356;2024-02-16T07:31:18;29.05;;;16.48;;
58238;SDS011;44037;55.638;37.356;2024-02-16T07:33:46;27.35;;;17.63;;
58238;SDS011;44037;55.638;37.356;2024-02-16T07:36:14;31.60;;;17.70;;
58238;SDS011;44037;55.638;37.356;2024-02-16T07:38:43;31.45;;;17.45;;
58238;SDS011;44037;55.638;37.356;2024-02-16T07:41:11;28.48;;;17.05;;
58238;SDS011;44037;55.638;37.356;2024-02-16T07:43:39;29.35;;;17.45;;
58238;SDS011;44037;55.638;37.356;2024-02-16T07:46:06;27.77;;;16.65;;
58238;SDS011;44037;55.638;37.356;2024-02-16T07:48:33;27.77;;;18.10;;
58238;SDS011;44037;55.638;37.356;2024-02-16T07:51:02;35.47;;;17.75;;
58238;SDS011;44037;55.638;37.356;2024-02-16T07:53:30;30.67;;;18.45;;
58238;SDS011;44037;55.638;37.356;2024-02-16T07:55:59;29.70;;;17.63;;
58238;SDS011;44037;55.638;37.356;2024-02-16T07:58:26;29.02;;;19.10;;
58238;SDS011;44037;55.638;37.356;2024-02-16T08:00:53;30.35;;;17.23;;
58238;SDS011;44037;55.638;37.356;2024-02-16T08:03:20;29.20;;;17.35;;
58238;SDS011;44037;55.638;37.356;2024-02-16T08:05:48;33.35;;;19.27;;
58238;SDS011;44037;55.638;37.356;2024-02-16T08:08:16;29.33;;;18.20;;
58238;SDS011;44037;55.638;37.356;2024-02-16T08:10:44;37.03;;;20.00;;
58238;SDS011;44037;55.638;37.356;2024-02-16T08:13:12;34.20;;;18.83;;
58238;SDS011;44037;55.638;37.356;2024-02-16T08:15:39;28.77;;;18.05;;
58238;SDS011;44037;55.638;37.356;2024-02-16T08:18:06;30.55;;;18.38;;
58238;SDS011;44037;55.638;37.356;2024-02-16T08:20:37;31.17;;;19.35;;
58238;SDS011;44037;55.638;37.356;2024-02-16T08:23:04;32.20;;;18.55;;
58238;SDS011;44037;55.638;37.356;2024-02-16T08:25:33;31.17;;;17.48;;
58238;SDS011;44037;55.638;37.356;2024-02-16T08:28:00;34.50;;;19.95;;
58238;SDS011;44037;55.638;37.356;2024-02-16T08:30:28;32.28;;;19.25;;
58238;SDS011;44037;55.638;37.356;2024-02-16T08:32:55;29.70;;;17.92;;
58238;SDS011;44037;55.638;37.356;2024-02-16T08:35:23;31.58;;;18.25;;
58238;SDS011;44037;55.638;37.356;2024-02-16T08:37:51;32.55;;;19.95;;
58238;SDS011;44037;55.638;37.356;2024-02-16T08:40:18;31.85;;;18.10;;
58238;SDS011;44037;55.638;37.356;2024-02-16T08:42:46;29.10;;;16.75;;
58238;SDS011;44037;55.638;37.356;2024-02-16T08:45:13;31.30;;;19.17;;
58238;SDS011;44037;55.638;37.356;2024-02-16T08:47:42;32.00;;;19.58;;
58238;SDS011;44037;55.638;37.356;2024-02-16T08:50:10;34.67;;;20.65;;
58238;SDS011;44037;55.638;37.356;2024-02-16T08:52:37;36.67;;;20.98;;
58238;SDS011;44037;55.638;37.356;2024-02-16T08:55:05;36.72;;;19.55;;
58238;SDS011;44037;55.638;37.356;2024-02-16T08:57:33;29.08;;;19.30;;
58238;SDS011;44037;55.638;37.356;2024-02-16T09:00:02;35.03;;;20.48;;
58238;SDS011;44037;55.638;37.356;2024-02-16T09:02:30;35.53;;;20.85;;
58238;SDS011;44037;55.638;37.356;2024-02-16T09:04:58;35.42;;;19.10;;
58238;SDS011;44037;55.638;37.356;2024-02-16T09:07:25;30.45;;;18.83;;
58238;SDS011;44037;55.638;37.356;2024-02-16T09:09:52;33.22;;;20.30;;
58238;SDS011;44037;55.638;37.356;2024-02-16T09:12:21;29.40;;;17.83;;
58238;SDS011;44037;55.638;37.356;2024-02-16T09:14:49;33.10;;;20.80;;
58238;SDS011;44037;55.638;37.356;2024-02-16T09:17:17;36.70;;;20.00;;
58238;SDS011;44037;55.638;37.356;2024-02-16T09:19:45;34.97;;;20.02;;
58238;SDS011;44037;55.638;37.356;2024-02-16T09:22:13;39.67;;;21.73;;
58238;SDS011;44037;55.638;37.356;2024-02-16T09:24:40;32.67;;;19.45;;
58238;SDS011;44037;55.638;37.356;2024-02-16T09:27:07;30.15;;;19.17;;
58238;SDS011;44037;55.638;37.356;2024-02-16T09:29:35;36.72;;;22.25;;
58238;SDS011;44037;55.638;37.356;2024-02-16T09:32:03;34.45;;;20.98;;
58238;SDS011;44037;55.638;37.356;2024-02-16T09:34:32;38.00;;;21.67;;
58238;SDS011;44037;55.638;37.356;2024-02-16T09:36:59;36.05;;;20.48;;
58238;SDS011;44037;55.638;37.356;2024-02-16T09:39:27;35.38;;;19.98;;
58238;SDS011;44037;55.638;37.356;2024-02-16T09:41:54;35.08;;;20.13;;
58238;SDS011;44037;55.638;37.356;2024-02-16T09:44:21;33.28;;;19.52;;
58238;SDS011;44037;55.638;37.356;2024-02-16T09:46:49;34.33;;;20.17;;
58238;SDS011;44037;55.638;37.356;2024-02-16T09:49:20;38.10;;;21.38;;
58238;SDS011;44037;55.638;37.356;2024-02-16T09:51:48;36.08;;;21.55;;
58238;SDS011;44037;55.638;37.356;2024-02-16T09:54:16;34.45;;;20.88;;
58238;SDS011;44037;55.638;37.356;2024-02-16T09:56:43;34.95;;;21.50;;
58238;SDS011;44037;55.638;37.356;2024-02-16T09:59:12;37.88;;;21.20;;
58238;SDS011;44037;55.638;37.356;2024-02-16T10:01:38;37.10;;;22.23;;
58238;SDS011;44037;55.638;37.356;2024-02-16T10:04:06;38.25;;;22.52;;
58238;SDS011;44037;55.638;37.356;2024-02-16T10:06:39;34.53;;;21.80;;
58238;SDS011;44037;55.638;37.356;2024-02-16T10:09:23;33.33;;;20.85;;
58238;SDS011;44037;55.638;37.356;2024-02-16T10:11:51;36.05;;;21.58;;
58238;SDS011;44037;55.638;37.356;2024-02-16T10:14:18;38.28;;;20.85;;
58238;SDS011;44037;55.638;37.356;2024-02-16T10:16:45;33.13;;;20.58;;
58238;SDS011;44037;55.638;37.356;2024-02-16T10:19:13;39.28;;;21.45;;
58238;SDS011;44037;55.638;37.356;2024-02-16T10:21:44;38.30;;;22.27;;
58238;SDS011;44037;55.638;37.356;2024-02-16T10:24:11;40.28;;;24.00;;
58238;SDS011;44037;55.638;37.356;2024-02-16T10:26:41;33.53;;;21.08;;
58238;SDS011;44037;55.638;37.356;2024-02-16T10:29:09;33.03;;;20.67;;
58238;SDS011;44037;55.638;37.356;2024-02-16T10:31:37;37.63;;;22.83;;
58238;SDS011;44037;55.638;37.356;2024-02-16T10:34:05;39.15;;;21.60;;
58238;SDS011;44037;55.638;37.356;2024-02-16T10:36:35;32.95;;;21.02;;
58238;SDS011;44037;55.638;37.356;2024-02-16T10:39:03;40.15;;;22.38;;
58238;SDS011;44037;55.638;37.356;2024-02-16T10:41:34;37.35;;;21.88;;
58238;SDS011;44037;55.638;37.356;2024-02-16T10:44:03;35.10;;;21.55;;
58238;SDS011;44037;55.638;37.356;2024-02-16T10:46:31;33.20;;;21.20;;
58238;SDS011;44037;55.638;37.356;2024-02-16T10:48:59;37.40;;;22.48;;
58238;SDS011;44037;55.638;37.356;2024-02-16T10:51:31;34.30;;;21.38;;
58238;SDS011;44037;55.638;37.356;2024-02-16T10:54:04;32.28;;;19.63;;
58238;SDS011;44037;55.638;37.356;2024-02-16T10:56:33;32.00;;;20.58;;
58238;SDS011;44037;55.638;37.356;2024-02-16T10:59:03;36.60;;;21.98;;
58238;SDS011;44037;55.638;37.356;2024-02-16T11:01:32;35.15;;;21.48;;
58238;SDS011;44037;55.638;37.356;2024-02-16T11:04:00;30.33;;;18.88;;
58238;SDS011;44037;55.638;37.356;2024-02-16T11:06:29;34.45;;;21.17;;
58238;SDS011;44037;55.638;37.356;2024-02-16T11:09:01;44.20;;;28.20;;
58238;SDS011;44037;55.638;37.356;2024-02-16T11:11:33;33.67;;;21.13;;
58238;SDS011;44037;55.638;37.356;2024-02-16T11:14:03;35.90;;;20.27;;
58238;SDS011;44037;55.638;37.356;2024-02-16T11:16:45;33.75;;;20.88;;
58238;SDS011;44037;55.638;37.356;2024-02-16T11:19:12;33.60;;;20.08;;
58238;SDS011;44037;55.638;37.356;2024-02-16T11:21:54;35.75;;;21.58;;
58238;SDS011;44037;55.638;37.356;2024-02-16T11:24:27;37.65;;;21.85;;
58238;SDS011;44037;55.638;37.356;2024-02-16T11:26:56;38.63;;;22.48;;
58238;SDS011;44037;55.638;37.356;2024-02-16T11:29:26;35.28;;;21.38;;
58238;SDS011;44037;55.638;37.356;2024-02-16T11:31:56;36.22;;;20.42;;
58238;SDS011;44037;55.638;37.356;2024-02-16T11:34:24;34.78;;;21.65;;
58238;SDS011;44037;55.638;37.356;2024-02-16T11:36:53;30.15;;;19.52;;
58238;SDS011;44037;55.638;37.356;2024-02-16T11:39:21;36.28;;;21.55;;
58238;SDS011;44037;55.638;37.356;2024-02-16T11:41:58;32.60;;;20.35;;
58238;SDS011;44037;55.638;37.356;2024-02-16T11:44:28;37.38;;;22.70;;
58238;SDS011;44037;55.638;37.356;2024-02-16T11:46:57;35.78;;;21.50;;
58238;SDS011;44037;55.638;37.356;2024-02-16T11:49:24;32.55;;;20.52;;
58238;SDS011;44037;55.638;37.356;2024-02-16T11:51:52;31.38;;;19.13;;
58238;SDS011;44037;55.638;37.356;2024-02-16T11:54:19;38.58;;;23.17;;
58238;SDS011;44037;55.638;37.356;2024-02-16T11:56:46;32.20;;;21.33;;
58238;SDS011;44037;55.638;37.356;2024-02-16T11:59:16;35.90;;;20.90;;
58238;SDS011;44037;55.638;37.356;2024-02-16T12:01:52;33.65;;;20.27;;
58238;SDS011;44037;55.638;37.356;2024-02-16T12:04:21;36.08;;;21.33;;
58238;SDS011;44037;55.638;37.356;2024-02-16T12:06:53;39.58;;;23.02;;
58238;SDS011;44037;55.638;37.356;2024-02-16T12:09:22;33.90;;;20.95;;
58238;SDS011;44037;55.638;37.356;2024-02-16T12:11:50;35.90;;;19.52;;
58238;SDS011;44037;55.638;37.356;2024-02-16T12:14:19;35.67;;;21.02;;
58238;SDS011;44037;55.638;37.356;2024-02-16T12:16:49;36.15;;;22.63;;
58238;SDS011;44037;55.638;37.356;2024-02-16T12:19:18;37.13;;;22.55;;
58238;SDS011;44037;55.638;37.356;2024-02-16T12:21:48;38.50;;;20.90;;
58238;SDS011;44037;55.638;37.356;2024-02-16T12:24:16;35.47;;;23.10;;
58238;SDS011;44037;55.638;37.356;2024-02-16T12:26:44;37.10;;;22.95;;
58238;SDS011;44037;55.638;37.356;2024-02-16T12:29:11;33.05;;;20.70;;
58238;SDS011;44037;55.638;37.356;2024-02-16T12:31:39;37.65;;;22.10;;
58238;SDS011;44037;55.638;37.356;2024-02-16T12:34:07;35.80;;;21.63;;
58238;SDS011;44037;55.638;37.356;2024-02-16T12:36:35;37.53;;;21.10;;
58238;SDS011;44037;55.638;37.356;2024-02-16T12:39:03;31.92;;;20.20;;
58238;SDS011;44037;55.638;37.356;2024-02-16T12:41:31;35.33;;;21.90;;
58238;SDS011;44037;55.638;37.356;2024-02-16T12:43:59;39.15;;;21.52;;
58238;SDS011;44037;55.638;37.356;2024-02-16T12:46:26;38.22;;;22.90;;
58238;SDS011;44037;55.638;37.356;2024-02-16T12:48:54;37.10;;;22.17;;
58238;SDS011;44037;55.638;37.356;2024-02-16T12:51:21;39.80;;;23.85;;
58238;SDS011;44037;55.638;37.356;2024-02-16T12:53:50;35.88;;;22.55;;
58238;SDS011;44037;55.638;37.356;2024-02-16T12:56:18;36.17;;;20.63;;
58238;SDS011;44037;55.638;37.356;2024-02-16T12:58:46;35.35;;;22.25;;
58238;SDS011;44037;55.638;37.356;2024-02-16T13:01:14;39.88;;;23.40;;
58238;SDS011;44037;55.638;37.356;2024-02-16T13:03:43;39.30;;;23.98;;
58238;SDS011;44037;55.638;37.356;2024-02-16T13:06:11;38.92;;;23.63;;
58238;SDS011;44037;55.638;37.356;2024-02-16T13:08:38;39.83;;;23.73;;
58238;SDS011;44037;55.638;37.356;2024-02-16T13:11:07;38.65;;;22.77;;
58238;SDS011;44037;55.638;37.356;2024-02-16T13:13:34;40.22;;;23.45;;
58238;SDS011;44037;55.638;37.356;2024-02-16T13:16:02;40.85;;;22.38;;
58238;SDS011;44037;55.638;37.356;2024-02-16T13:18:29;31.30;;;21.08;;
58238;SDS011;44037;55.638;37.356;2024-02-16T13:20:56;32.22;;;22.13;;
58238;SDS011;44037;55.638;37.356;2024-02-16T13:23:23;34.95;;;21.25;;
58238;SDS011;44037;55.638;37.356;2024-02-16T13:25:50;37.33;;;21.33;;
58238;SDS011;44037;55.638;37.356;2024-02-16T13:28:20;41.10;;;20.67;;
58238;SDS011;44037;55.638;37.356;2024-02-16T13:30:47;36.35;;;20.10;;
58238;SDS011;44037;55.638;37.356;2024-02-16T13:33:14;40.15;;;21.55;;
58238;SDS011;44037;55.638;37.356;2024-02-16T13:35:41;38.50;;;22.40;;
58238;SDS011;44037;55.638;37.356;2024-02-16T13:38:08;33.08;;;20.52;;
58238;SDS011;44037;55.638;37.356;2024-02-16T13:40:36;37.08;;;22.58;;
58238;SDS011;44037;55.638;37.356;2024-02-16T13:43:03;36.13;;;21.33;;
58238;SDS011;44037;55.638;37.356;2024-02-16T13:45:47;35.40;;;21.75;;
58238;SDS011;44037;55.638;37.356;2024-02-16T13:48:16;34.17;;;20.45;;
58238;SDS011;44037;55.638;37.356;2024-02-16T13:50:44;37.72;;;21.15;;
58238;SDS011;44037;55.638;37.356;2024-02-16T13:53:12;32.97;;;20.60;;
58238;SDS011;44037;55.638;37.356;2024-02-16T13:55:41;36.92;;;20.75;;
58238;SDS011;44037;55.638;37.356;2024-02-16T13:58:09;34.53;;;21.40;;
58238;SDS011;44037;55.638;37.356;2024-02-16T14:00:38;37.90;;;21.58;;
58238;SDS011;44037;55.638;37.356;2024-02-16T14:03:05;30.08;;;19.30;;
58238;SDS011;44037;55.638;37.356;2024-02-16T14:05:35;36.22;;;21.70;;
58238;SDS011;44037;55.638;37.356;2024-02-16T14:08:03;38.35;;;20.60;;
58238;SDS011;44037;55.638;37.356;2024-02-16T14:10:31;36.00;;;20.52;;
58238;SDS011;44037;55.638;37.356;2024-02-16T14:12:58;38.95;;;22.05;;